sensor_id;sensor_type;location;lat;lon;timestamp;P1;durP1;ratioP1;P2;durP2;ratioP2
22737;SDS011;11536;50.860;4.286;2024-02-04T00:02:04;12.32;;;3.42;;
22737;SDS011;11536;50.860;4.286;2024-02-04T00:04:32;7.75;;;3.22;;
22737;SDS011;11536;50.860;4.286;2024-02-04T00:06:59;12.13;;;3.10;;
22737;SDS011;11536;50.860;4.286;2024-02-04T00:09:25;9.38;;;3.00;;
22737;SDS011;11536;50.860;4.286;2024-02-04T00:11:53;8.27;;;3.08;;
22737;SDS011;11536;50.860;4.286;2024-02-04T00:14:19;7.60;;;3.55;;
22737;SDS011;11536;50.860;4.286;2024-02-04T00:16:44;9.98;;;3.15;;
22737;SDS011;11536;50.860;4.286;2024-02-04T00:19:10;5.97;;;3.20;;
22737;SDS011;11536;50.860;4.286;2024-02-04T00:21:35;6.95;;;3.05;;
22737;SDS011;11536;50.860;4.286;2024-02-04T00:24:01;9.05;;;2.90;;
22737;SDS011;11536;50.860;4.286;2024-02-04T00:26:27;9.73;;;2.78;;
22737;SDS011;11536;50.860;4.286;2024-02-04T00:28:59;9.82;;;3.70;;
22737;SDS011;11536;50.860;4.286;2024-02-04T00:31:25;8.20;;;2.40;;
22737;SDS011;11536;50.860;4.286;2024-02-04T00:33:51;7.75;;;2.80;;
22737;SDS011;11536;50.860;4.286;2024-02-04T00:36:16;7.43;;;2.70;;
22737;SDS011;11536;50.860;4.286;2024-02-04T00:38:43;9.50;;;2.55;;
22737;SDS011;11536;50.860;4.286;2024-02-04T00:41:08;5.05;;;2.40;;
22737;SDS011;11536;50.860;4.286;2024-02-04T00:43:34;8.70;;;2.63;;
22737;SDS011;11536;50.860;4.286;2024-02-04T00:46:00;7.05;;;2.38;;
22737;SDS011;11536;50.860;4.286;2024-02-04T00:48:26;5.85;;;2.45;;
22737;SDS011;11536;50.860;4.286;2024-02-04T00:50:52;8.00;;;2.50;;
22737;SDS011;11536;50.860;4.286;2024-02-04T00:53:17;6.45;;;2.17;;
22737;SDS011;11536;50.860;4.286;2024-02-04T00:55:43;6.78;;;2.38;;
22737;SDS011;11536;50.860;4.286;2024-02-04T00:58:08;5.70;;;2.63;;
22737;SDS011;11536;50.860;4.286;2024-02-04T01:00:34;5.55;;;1.95;;
22737;SDS011;11536;50.860;4.286;2024-02-04T01:03:00;6.43;;;2.50;;
22737;SDS011;11536;50.860;4.286;2024-02-04T01:05:25;6.50;;;2.08;;
22737;SDS011;11536;50.860;4.286;2024-02-04T01:07:51;5.75;;;1.88;;
22737;SDS011;11536;50.860;4.286;2024-02-04T01:10:16;4.55;;;1.73;;
22737;SDS011;11536;50.860;4.286;2024-02-04T01:12:42;8.65;;;2.25;;
22737;SDS011;11536;50.860;4.286;2024-02-04T01:15:08;6.57;;;2.45;;
22737;SDS011;11536;50.860;4.286;2024-02-04T01:17:34;5.47;;;2.17;;
22737;SDS011;11536;50.860;4.286;2024-02-04T01:19:59;5.75;;;1.95;;
22737;SDS011;11536;50.860;4.286;2024-02-04T01:22:25;6.28;;;2.10;;
22737;SDS011;11536;50.860;4.286;2024-02-04T01:24:52;8.15;;;2.13;;
22737;SDS011;11536;50.860;4.286;2024-02-04T01:27:18;6.05;;;2.33;;
22737;SDS011;11536;50.860;4.286;2024-02-04T01:29:43;10.15;;;3.03;;
22737;SDS011;11536;50.860;4.286;2024-02-04T01:32:09;4.78;;;2.25;;
22737;SDS011;11536;50.860;4.286;2024-02-04T01:34:34;7.28;;;2.40;;
22737;SDS011;11536;50.860;4.286;2024-02-04T01:37:00;6.75;;;2.38;;
22737;SDS011;11536;50.860;4.286;2024-02-04T01:39:26;5.93;;;2.38;;
22737;SDS011;11536;50.860;4.286;2024-02-04T01:41:51;8.00;;;2.65;;
22737;SDS011;11536;50.860;4.286;2024-02-04T01:44:17;7.40;;;2.95;;
22737;SDS011;11536;50.860;4.286;2024-02-04T01:46:44;9.10;;;3.00;;
22737;SDS011;11536;50.860;4.286;2024-02-04T01:49:10;11.18;;;2.78;;
22737;SDS011;11536;50.860;4.286;2024-02-04T01:51:36;8.57;;;2.80;;
22737;SDS011;11536;50.860;4.286;2024-02-04T01:54:02;6.65;;;2.85;;
22737;SDS011;11536;50.860;4.286;2024-02-04T01:56:29;9.73;;;3.45;;
22737;SDS011;11536;50.860;4.286;2024-02-04T01:58:56;10.18;;;3.13;;
22737;SDS011;11536;50.860;4.286;2024-02-04T02:01:23;9.23;;;2.67;;
22737;SDS011;11536;50.860;4.286;2024-02-04T02:03:49;9.80;;;3.00;;
22737;SDS011;11536;50.860;4.286;2024-02-04T02:06:16;10.27;;;3.38;;
22737;SDS011;11536;50.860;4.286;2024-02-04T02:08:42;8.73;;;3.40;;
22737;SDS011;11536;50.860;4.286;2024-02-04T02:11:11;8.40;;;3.30;;
22737;SDS011;11536;50.860;4.286;2024-02-04T02:13:39;11.23;;;3.50;;
22737;SDS011;11536;50.860;4.286;2024-02-04T02:16:10;7.88;;;3.60;;
22737;SDS011;11536;50.860;4.286;2024-02-04T02:21:29;7.88;;;3.40;;
22737;SDS011;11536;50.860;4.286;2024-02-04T02:24:59;10.25;;;3.10;;
22737;SDS011;11536;50.860;4.286;2024-02-04T02:27:04;11.30;;;4.13;;
22737;SDS011;11536;50.860;4.286;2024-02-04T02:29:31;10.55;;;3.72;;
22737;SDS011;11536;50.860;4.286;2024-02-04T02:32:00;12.07;;;4.10;;
22737;SDS011;11536;50.860;4.286;2024-02-04T02:34:28;10.70;;;4.75;;
22737;SDS011;11536;50.860;4.286;2024-02-04T02:36:56;8.95;;;3.90;;
22737;SDS011;11536;50.860;4.286;2024-02-04T02:39:45;9.90;;;3.88;;
22737;SDS011;11536;50.860;4.286;2024-02-04T02:42:33;17.92;;;4.43;;
22737;SDS011;11536;50.860;4.286;2024-02-04T02:45:01;11.65;;;4.30;;
22737;SDS011;11536;50.860;4.286;2024-02-04T02:47:28;16.17;;;4.13;;
22737;SDS011;11536;50.860;4.286;2024-02-04T02:49:54;13.10;;;4.70;;
22737;SDS011;11536;50.860;4.286;2024-02-04T02:52:23;12.00;;;4.63;;
22737;SDS011;11536;50.860;4.286;2024-02-04T02:54:48;12.68;;;4.15;;
22737;SDS011;11536;50.860;4.286;2024-02-04T02:57:14;10.18;;;4.45;;
22737;SDS011;11536;50.860;4.286;2024-02-04T02:59:40;13.40;;;4.65;;
22737;SDS011;11536;50.860;4.286;2024-02-04T03:02:05;12.75;;;4.80;;
22737;SDS011;11536;50.860;4.286;2024-02-04T03:04:31;10.20;;;4.25;;
22737;SDS011;11536;50.860;4.286;2024-02-04T03:06:56;10.80;;;4.28;;
22737;SDS011;11536;50.860;4.286;2024-02-04T03:09:22;14.75;;;4.57;;
22737;SDS011;11536;50.860;4.286;2024-02-04T03:11:48;13.35;;;5.07;;
22737;SDS011;11536;50.860;4.286;2024-02-04T03:14:16;11.63;;;4.50;;
22737;SDS011;11536;50.860;4.286;2024-02-04T03:16:45;10.60;;;4.07;;
22737;SDS011;11536;50.860;4.286;2024-02-04T03:19:11;10.25;;;4.20;;
22737;SDS011;11536;50.860;4.286;2024-02-04T03:21:37;12.35;;;4.18;;
22737;SDS011;11536;50.860;4.286;2024-02-04T03:24:02;9.35;;;4.07;;
22737;SDS011;11536;50.860;4.286;2024-02-04T03:26:28;9.98;;;4.15;;
22737;SDS011;11536;50.860;4.286;2024-02-04T03:28:54;10.90;;;4.03;;
22737;SDS011;11536;50.860;4.286;2024-02-04T03:31:23;10.88;;;3.90;;
22737;SDS011;11536;50.860;4.286;2024-02-04T03:33:49;11.18;;;3.97;;
22737;SDS011;11536;50.860;4.286;2024-02-04T03:36:21;8.75;;;3.25;;
22737;SDS011;11536;50.860;4.286;2024-02-04T03:38:51;11.00;;;3.60;;
22737;SDS011;11536;50.860;4.286;2024-02-04T03:41:17;11.38;;;3.40;;
22737;SDS011;11536;50.860;4.286;2024-02-04T03:43:43;7.97;;;3.15;;
22737;SDS011;11536;50.860;4.286;2024-02-04T03:46:12;8.15;;;2.97;;
22737;SDS011;11536;50.860;4.286;2024-02-04T03:48:39;9.77;;;3.78;;
22737;SDS011;11536;50.860;4.286;2024-02-04T03:51:05;8.65;;;3.50;;
22737;SDS011;11536;50.860;4.286;2024-02-04T03:53:30;9.85;;;3.38;;
22737;SDS011;11536;50.860;4.286;2024-02-04T03:55:56;8.55;;;3.08;;
22737;SDS011;11536;50.860;4.286;2024-02-04T03:58:22;11.00;;;2.90;;
22737;SDS011;11536;50.860;4.286;2024-02-04T04:00:54;10.77;;;3.38;;
22737;SDS011;11536;50.860;4.286;2024-02-04T04:03:20;9.57;;;3.50;;
22737;SDS011;11536;50.860;4.286;2024-02-04T04:05:46;9.55;;;2.97;;
22737;SDS011;11536;50.860;4.286;2024-02-04T04:08:11;7.10;;;3.00;;
22737;SDS011;11536;50.860;4.286;2024-02-04T04:10:38;8.15;;;3.20;;
22737;SDS011;11536;50.860;4.286;2024-02-04T04:13:03;9.27;;;3.70;;
22737;SDS011;11536;50.860;4.286;2024-02-04T04:15:29;8.63;;;2.92;;
22737;SDS011;11536;50.860;4.286;2024-02-04T04:17:54;7.20;;;2.70;;
22737;SDS011;11536;50.860;4.286;2024-02-04T04:20:20;7.43;;;3.03;;
22737;SDS011;11536;50.860;4.286;2024-02-04T04:22:45;9.55;;;2.78;;
22737;SDS011;11536;50.860;4.286;2024-02-04T04:25:11;7.70;;;2.72;;
22737;SDS011;11536;50.860;4.286;2024-02-04T04:27:39;7.75;;;2.70;;
22737;SDS011;11536;50.860;4.286;2024-02-04T04:30:04;6.95;;;2.60;;
22737;SDS011;11536;50.860;4.286;2024-02-04T04:32:30;9.85;;;2.85;;
22737;SDS011;11536;50.860;4.286;2024-02-04T04:34:57;7.88;;;2.75;;
22737;SDS011;11536;50.860;4.286;2024-02-04T04:37:22;8.32;;;2.85;;
22737;SDS011;11536;50.860;4.286;2024-02-04T04:39:48;10.85;;;2.47;;
22737;SDS011;11536;50.860;4.286;2024-02-04T04:42:14;7.90;;;2.63;;
22737;SDS011;11536;50.860;4.286;2024-02-04T04:44:39;8.10;;;2.30;;
22737;SDS011;11536;50.860;4.286;2024-02-04T04:47:05;6.35;;;2.30;;
22737;SDS011;11536;50.860;4.286;2024-02-04T04:49:31;8.55;;;2.47;;
22737;SDS011;11536;50.860;4.286;2024-02-04T04:51:56;7.35;;;2.28;;
22737;SDS011;11536;50.860;4.286;2024-02-04T04:54:22;7.78;;;2.40;;
22737;SDS011;11536;50.860;4.286;2024-02-04T04:56:48;7.85;;;2.95;;
22737;SDS011;11536;50.860;4.286;2024-02-04T04:59:14;8.40;;;2.58;;
22737;SDS011;11536;50.860;4.286;2024-02-04T05:01:47;7.28;;;2.58;;
22737;SDS011;11536;50.860;4.286;2024-02-04T05:04:13;8.25;;;2.72;;
22737;SDS011;11536;50.860;4.286;2024-02-04T05:06:39;10.63;;;3.28;;
22737;SDS011;11536;50.860;4.286;2024-02-04T05:09:05;6.68;;;2.55;;
22737;SDS011;11536;50.860;4.286;2024-02-04T05:11:31;7.03;;;2.75;;
22737;SDS011;11536;50.860;4.286;2024-02-04T05:13:56;11.32;;;2.72;;
22737;SDS011;11536;50.860;4.286;2024-02-04T05:16:22;5.90;;;2.20;;
22737;SDS011;11536;50.860;4.286;2024-02-04T05:18:48;10.05;;;3.03;;
22737;SDS011;11536;50.860;4.286;2024-02-04T05:21:13;6.22;;;2.55;;
22737;SDS011;11536;50.860;4.286;2024-02-04T05:23:39;8.10;;;2.63;;
22737;SDS011;11536;50.860;4.286;2024-02-04T05:26:04;7.85;;;2.50;;
22737;SDS011;11536;50.860;4.286;2024-02-04T05:28:31;9.48;;;2.72;;
22737;SDS011;11536;50.860;4.286;2024-02-04T05:30:57;8.15;;;2.80;;
22737;SDS011;11536;50.860;4.286;2024-02-04T05:33:23;11.55;;;3.30;;
22737;SDS011;11536;50.860;4.286;2024-02-04T05:35:48;9.95;;;3.65;;
22737;SDS011;11536;50.860;4.286;2024-02-04T05:38:15;10.50;;;3.47;;
22737;SDS011;11536;50.860;4.286;2024-02-04T05:40:41;12.20;;;3.92;;
22737;SDS011;11536;50.860;4.286;2024-02-04T05:43:07;13.80;;;4.53;;
22737;SDS011;11536;50.860;4.286;2024-02-04T05:45:35;9.75;;;3.47;;
22737;SDS011;11536;50.860;4.286;2024-02-04T05:48:06;14.32;;;4.38;;
22737;SDS011;11536;50.860;4.286;2024-02-04T05:50:32;12.20;;;3.67;;
22737;SDS011;11536;50.860;4.286;2024-02-04T05:52:58;11.90;;;3.92;;
22737;SDS011;11536;50.860;4.286;2024-02-04T05:55:23;10.77;;;3.45;;
22737;SDS011;11536;50.860;4.286;2024-02-04T05:57:49;11.65;;;3.97;;
22737;SDS011;11536;50.860;4.286;2024-02-04T06:00:15;10.95;;;3.63;;
22737;SDS011;11536;50.860;4.286;2024-02-04T06:02:40;15.05;;;4.50;;
22737;SDS011;11536;50.860;4.286;2024-02-04T06:05:08;15.18;;;4.70;;
22737;SDS011;11536;50.860;4.286;2024-02-04T06:07:37;12.32;;;4.40;;
22737;SDS011;11536;50.860;4.286;2024-02-04T06:10:03;12.82;;;4.07;;
22737;SDS011;11536;50.860;4.286;2024-02-04T06:12:29;11.15;;;3.90;;
22737;SDS011;11536;50.860;4.286;2024-02-04T06:14:55;10.73;;;4.40;;
22737;SDS011;11536;50.860;4.286;2024-02-04T06:17:20;10.45;;;3.67;;
22737;SDS011;11536;50.860;4.286;2024-02-04T06:19:46;11.73;;;3.78;;
22737;SDS011;11536;50.860;4.286;2024-02-04T06:22:12;8.45;;;3.50;;
22737;SDS011;11536;50.860;4.286;2024-02-04T06:24:39;11.00;;;3.38;;
22737;SDS011;11536;50.860;4.286;2024-02-04T06:27:06;10.52;;;3.42;;
22737;SDS011;11536;50.860;4.286;2024-02-04T06:29:32;7.85;;;3.58;;
22737;SDS011;11536;50.860;4.286;2024-02-04T06:31:58;8.52;;;2.85;;
22737;SDS011;11536;50.860;4.286;2024-02-04T06:34:24;10.25;;;3.53;;
22737;SDS011;11536;50.860;4.286;2024-02-04T06:36:49;10.68;;;3.28;;
22737;SDS011;11536;50.860;4.286;2024-02-04T06:39:15;12.95;;;3.58;;
22737;SDS011;11536;50.860;4.286;2024-02-04T06:41:41;8.80;;;3.22;;
22737;SDS011;11536;50.860;4.286;2024-02-04T06:44:07;7.93;;;3.22;;
22737;SDS011;11536;50.860;4.286;2024-02-04T06:46:33;9.15;;;3.53;;
22737;SDS011;11536;50.860;4.286;2024-02-04T06:48:59;9.40;;;3.30;;
22737;SDS011;11536;50.860;4.286;2024-02-04T06:51:25;11.98;;;3.00;;
22737;SDS011;11536;50.860;4.286;2024-02-04T06:53:50;10.98;;;3.17;;
22737;SDS011;11536;50.860;4.286;2024-02-04T06:56:16;10.27;;;3.63;;
22737;SDS011;11536;50.860;4.286;2024-02-04T06:58:42;9.88;;;3.58;;
22737;SDS011;11536;50.860;4.286;2024-02-04T07:01:08;10.90;;;3.95;;
22737;SDS011;11536;50.860;4.286;2024-02-04T07:03:35;8.15;;;3.20;;
22737;SDS011;11536;50.860;4.286;2024-02-04T07:06:01;8.10;;;3.42;;
22737;SDS011;11536;50.860;4.286;2024-02-04T07:08:27;13.57;;;4.35;;
22737;SDS011;11536;50.860;4.286;2024-02-04T07:10:52;9.98;;;4.18;;
22737;SDS011;11536;50.860;4.286;2024-02-04T07:13:19;13.02;;;4.95;;
22737;SDS011;11536;50.860;4.286;2024-02-04T07:15:44;11.88;;;4.93;;
22737;SDS011;11536;50.860;4.286;2024-02-04T07:18:10;11.38;;;4.60;;
22737;SDS011;11536;50.860;4.286;2024-02-04T07:20:36;11.57;;;4.60;;
22737;SDS011;11536;50.860;4.286;2024-02-04T07:23:02;10.70;;;4.85;;
22737;SDS011;11536;50.860;4.286;2024-02-04T07:25:29;10.95;;;5.18;;
22737;SDS011;11536;50.860;4.286;2024-02-04T07:27:54;19.40;;;5.68;;
22737;SDS011;11536;50.860;4.286;2024-02-04T07:30:21;11.38;;;5.05;;
22737;SDS011;11536;50.860;4.286;2024-02-04T07:32:47;12.20;;;5.07;;
22737;SDS011;11536;50.860;4.286;2024-02-04T07:35:13;13.70;;;4.65;;
22737;SDS011;11536;50.860;4.286;2024-02-04T07:37:38;10.43;;;3.92;;
22737;SDS011;11536;50.860;4.286;2024-02-04T07:40:04;10.13;;;4.15;;
22737;SDS011;11536;50.860;4.286;2024-02-04T07:42:31;9.88;;;3.80;;
22737;SDS011;11536;50.860;4.286;2024-02-04T07:44:57;10.63;;;4.07;;
22737;SDS011;11536;50.860;4.286;2024-02-04T07:47:23;10.80;;;3.65;;
22737;SDS011;11536;50.860;4.286;2024-02-04T07:49:49;11.10;;;2.97;;
22737;SDS011;11536;50.860;4.286;2024-02-04T07:52:15;9.95;;;3.47;;
22737;SDS011;11536;50.860;4.286;2024-02-04T07:54:40;6.00;;;3.00;;
22737;SDS011;11536;50.860;4.286;2024-02-04T07:57:08;11.93;;;3.63;;
22737;SDS011;11536;50.860;4.286;2024-02-04T07:59:34;14.82;;;3.88;;
22737;SDS011;11536;50.860;4.286;2024-02-04T08:02:00;8.68;;;3.38;;
22737;SDS011;11536;50.860;4.286;2024-02-04T08:04:26;10.70;;;3.35;;
22737;SDS011;11536;50.860;4.286;2024-02-04T08:06:51;8.38;;;2.95;;
22737;SDS011;11536;50.860;4.286;2024-02-04T08:09:18;8.70;;;3.20;;
22737;SDS011;11536;50.860;4.286;2024-02-04T08:11:43;8.52;;;2.50;;
22737;SDS011;11536;50.860;4.286;2024-02-04T08:14:09;8.13;;;3.00;;
22737;SDS011;11536;50.860;4.286;2024-02-04T08:16:34;7.97;;;2.72;;
22737;SDS011;11536;50.860;4.286;2024-02-04T08:19:00;11.10;;;2.85;;
22737;SDS011;11536;50.860;4.286;2024-02-04T08:21:26;6.68;;;2.60;;
22737;SDS011;11536;50.860;4.286;2024-02-04T08:23:51;8.93;;;3.28;;
22737;SDS011;11536;50.860;4.286;2024-02-04T08:26:17;7.07;;;2.80;;
22737;SDS011;11536;50.860;4.286;2024-02-04T08:28:43;6.28;;;2.75;;
22737;SDS011;11536;50.860;4.286;2024-02-04T08:31:09;8.00;;;3.30;;
22737;SDS011;11536;50.860;4.286;2024-02-04T08:33:34;7.72;;;2.83;;
22737;SDS011;11536;50.860;4.286;2024-02-04T08:36:00;6.63;;;3.15;;
22737;SDS011;11536;50.860;4.286;2024-02-04T08:38:26;7.93;;;2.88;;
22737;SDS011;11536;50.860;4.286;2024-02-04T08:40:52;6.60;;;2.95;;
22737;SDS011;11536;50.860;4.286;2024-02-04T08:43:20;8.98;;;3.17;;
22737;SDS011;11536;50.860;4.286;2024-02-04T08:45:45;6.32;;;3.05;;
22737;SDS011;11536;50.860;4.286;2024-02-04T08:48:11;8.02;;;2.97;;
22737;SDS011;11536;50.860;4.286;2024-02-04T08:50:37;11.10;;;3.47;;
22737;SDS011;11536;50.860;4.286;2024-02-04T08:53:02;7.88;;;3.25;;
22737;SDS011;11536;50.860;4.286;2024-02-04T08:55:28;6.00;;;2.38;;
22737;SDS011;11536;50.860;4.286;2024-02-04T08:57:54;7.35;;;2.78;;
22737;SDS011;11536;50.860;4.286;2024-02-04T09:00:20;8.77;;;2.70;;
22737;SDS011;11536;50.860;4.286;2024-02-04T09:02:46;7.93;;;2.40;;
22737;SDS011;11536;50.860;4.286;2024-02-04T09:05:12;5.25;;;2.05;;
22737;SDS011;11536;50.860;4.286;2024-02-04T09:07:38;4.85;;;1.75;;
22737;SDS011;11536;50.860;4.286;2024-02-04T09:10:04;6.57;;;2.22;;
22737;SDS011;11536;50.860;4.286;2024-02-04T09:12:30;5.55;;;1.77;;
22737;SDS011;11536;50.860;4.286;2024-02-04T09:14:56;7.13;;;1.73;;
22737;SDS011;11536;50.860;4.286;2024-02-04T09:17:21;6.82;;;2.10;;
22737;SDS011;11536;50.860;4.286;2024-02-04T09:19:47;8.15;;;1.70;;
22737;SDS011;11536;50.860;4.286;2024-02-04T09:22:12;4.85;;;1.58;;
22737;SDS011;11536;50.860;4.286;2024-02-04T09:24:38;7.78;;;1.65;;
22737;SDS011;11536;50.860;4.286;2024-02-04T09:27:04;5.93;;;1.88;;
22737;SDS011;11536;50.860;4.286;2024-02-04T09:29:29;3.97;;;1.45;;
22737;SDS011;11536;50.860;4.286;2024-02-04T09:31:55;3.03;;;1.52;;
22737;SDS011;11536;50.860;4.286;2024-02-04T09:34:21;6.72;;;1.75;;
22737;SDS011;11536;50.860;4.286;2024-02-04T09:36:46;5.28;;;1.50;;
22737;SDS011;11536;50.860;4.286;2024-02-04T09:39:12;7.53;;;1.60;;
22737;SDS011;11536;50.860;4.286;2024-02-04T09:41:37;6.97;;;1.50;;
22737;SDS011;11536;50.860;4.286;2024-02-04T09:44:03;6.00;;;1.30;;
22737;SDS011;11536;50.860;4.286;2024-02-04T09:46:31;4.80;;;1.63;;
22737;SDS011;11536;50.860;4.286;2024-02-04T09:48:57;4.78;;;1.92;;
22737;SDS011;11536;50.860;4.286;2024-02-04T09:51:25;5.68;;;1.40;;
22737;SDS011;11536;50.860;4.286;2024-02-04T09:53:51;7.65;;;1.60;;
22737;SDS011;11536;50.860;4.286;2024-02-04T09:56:19;5.80;;;1.40;;
22737;SDS011;11536;50.860;4.286;2024-02-04T09:58:47;5.80;;;1.58;;
22737;SDS011;11536;50.860;4.286;2024-02-04T10:01:13;5.60;;;1.50;;
22737;SDS011;11536;50.860;4.286;2024-02-04T10:03:43;5.28;;;1.45;;
22737;SDS011;11536;50.860;4.286;2024-02-04T10:06:09;3.75;;;1.20;;
22737;SDS011;11536;50.860;4.286;2024-02-04T10:08:36;3.92;;;1.52;;
22737;SDS011;11536;50.860;4.286;2024-02-04T10:11:03;4.65;;;1.70;;
22737;SDS011;11536;50.860;4.286;2024-02-04T10:13:29;7.22;;;1.63;;
22737;SDS011;11536;50.860;4.286;2024-02-04T10:15:55;3.08;;;1.40;;
22737;SDS011;11536;50.860;4.286;2024-02-04T10:18:21;5.82;;;1.80;;
22737;SDS011;11536;50.860;4.286;2024-02-04T10:20:47;5.63;;;1.88;;
22737;SDS011;11536;50.860;4.286;2024-02-04T10:23:13;5.80;;;2.10;;
22737;SDS011;11536;50.860;4.286;2024-02-04T10:25:39;7.35;;;2.10;;
22737;SDS011;11536;50.860;4.286;2024-02-04T10:28:04;6.50;;;1.80;;
22737;SDS011;11536;50.860;4.286;2024-02-04T10:30:30;7.80;;;2.13;;
22737;SDS011;11536;50.860;4.286;2024-02-04T10:32:56;6.15;;;2.20;;
22737;SDS011;11536;50.860;4.286;2024-02-04T10:35:22;6.88;;;2.25;;
22737;SDS011;11536;50.860;4.286;2024-02-04T10:37:50;5.47;;;1.85;;
22737;SDS011;11536;50.860;4.286;2024-02-04T10:40:17;4.28;;;1.60;;
22737;SDS011;11536;50.860;4.286;2024-02-04T10:42:43;4.97;;;1.70;;
22737;SDS011;11536;50.860;4.286;2024-02-04T10:45:10;5.63;;;1.40;;
22737;SDS011;11536;50.860;4.286;2024-02-04T10:47:39;5.32;;;1.45;;
22737;SDS011;11536;50.860;4.286;2024-02-04T10:50:06;5.60;;;1.40;;
22737;SDS011;11536;50.860;4.286;2024-02-04T10:52:37;5.55;;;1.65;;
22737;SDS011;11536;50.860;4.286;2024-02-04T10:55:08;2.85;;;1.17;;
22737;SDS011;11536;50.860;4.286;2024-02-04T10:57:35;3.67;;;1.38;;
22737;SDS011;11536;50.860;4.286;2024-02-04T11:00:02;3.83;;;1.17;;
22737;SDS011;11536;50.860;4.286;2024-02-04T11:02:36;2.80;;;1.00;;
22737;SDS011;11536;50.860;4.286;2024-02-04T11:05:04;4.57;;;0.93;;
22737;SDS011;11536;50.860;4.286;2024-02-04T11:07:33;3.30;;;1.13;;
22737;SDS011;11536;50.860;4.286;2024-02-04T11:10:00;3.45;;;0.82;;
22737;SDS011;11536;50.860;4.286;2024-02-04T11:12:26;3.95;;;0.88;;
22737;SDS011;11536;50.860;4.286;2024-02-04T11:14:55;2.83;;;0.80;;
22737;SDS011;11536;50.860;4.286;2024-02-04T11:25:56;2.95;;;0.80;;
22737;SDS011;11536;50.860;4.286;2024-02-04T11:28:23;3.83;;;1.00;;
22737;SDS011;11536;50.860;4.286;2024-02-04T11:30:50;5.40;;;0.77;;
22737;SDS011;11536;50.860;4.286;2024-02-04T11:33:17;2.78;;;0.73;;
22737;SDS011;11536;50.860;4.286;2024-02-04T11:35:44;3.03;;;0.85;;
22737;SDS011;11536;50.860;4.286;2024-02-04T11:38:10;3.90;;;0.98;;
22737;SDS011;11536;50.860;4.286;2024-02-04T11:40:38;4.22;;;0.95;;
22737;SDS011;11536;50.860;4.286;2024-02-04T11:43:10;4.55;;;0.85;;
22737;SDS011;11536;50.860;4.286;2024-02-04T11:45:37;5.65;;;0.80;;
22737;SDS011;11536;50.860;4.286;2024-02-04T11:48:06;2.78;;;0.82;;
22737;SDS011;11536;50.860;4.286;2024-02-04T11:50:35;2.47;;;0.80;;
22737;SDS011;11536;50.860;4.286;2024-02-04T11:53:11;4.43;;;0.82;;
22737;SDS011;11536;50.860;4.286;2024-02-04T11:55:40;3.25;;;1.00;;
22737;SDS011;11536;50.860;4.286;2024-02-04T11:58:06;2.35;;;0.93;;
22737;SDS011;11536;50.860;4.286;2024-02-04T12:00:34;3.53;;;0.82;;
22737;SDS011;11536;50.860;4.286;2024-02-04T12:03:01;3.72;;;0.90;;
22737;SDS011;11536;50.860;4.286;2024-02-04T12:05:28;2.25;;;0.70;;
22737;SDS011;11536;50.860;4.286;2024-02-04T12:07:59;5.55;;;1.20;;
22737;SDS011;11536;50.860;4.286;2024-02-04T12:10:32;3.22;;;1.08;;
22737;SDS011;11536;50.860;4.286;2024-02-04T12:13:02;3.53;;;1.10;;
22737;SDS011;11536;50.860;4.286;2024-02-04T12:15:29;2.10;;;0.65;;
22737;SDS011;11536;50.860;4.286;2024-02-04T12:17:55;3.65;;;1.08;;
22737;SDS011;11536;50.860;4.286;2024-02-04T12:20:30;3.30;;;0.90;;
22737;SDS011;11536;50.860;4.286;2024-02-04T12:22:55;3.85;;;0.82;;
22737;SDS011;11536;50.860;4.286;2024-02-04T12:25:21;2.83;;;0.93;;
22737;SDS011;11536;50.860;4.286;2024-02-04T12:27:50;5.45;;;1.33;;
22737;SDS011;11536;50.860;4.286;2024-02-04T12:30:16;2.00;;;0.68;;
22737;SDS011;11536;50.860;4.286;2024-02-04T12:32:42;2.22;;;0.68;;
22737;SDS011;11536;50.860;4.286;2024-02-04T12:35:13;2.20;;;0.80;;
22737;SDS011;11536;50.860;4.286;2024-02-04T12:37:49;4.38;;;0.75;;
22737;SDS011;11536;50.860;4.286;2024-02-04T12:40:24;2.88;;;0.88;;
22737;SDS011;11536;50.860;4.286;2024-02-04T12:42:57;3.03;;;1.00;;
22737;SDS011;11536;50.860;4.286;2024-02-04T12:45:27;3.70;;;0.77;;
22737;SDS011;11536;50.860;4.286;2024-02-04T12:47:56;1.75;;;0.77;;
22737;SDS011;11536;50.860;4.286;2024-02-04T12:50:22;3.33;;;0.85;;
22737;SDS011;11536;50.860;4.286;2024-02-04T12:53:03;2.13;;;0.70;;
22737;SDS011;11536;50.860;4.286;2024-02-04T12:55:32;2.45;;;0.70;;
22737;SDS011;11536;50.860;4.286;2024-02-04T12:58:08;2.78;;;0.98;;
22737;SDS011;11536;50.860;4.286;2024-02-04T13:00:39;2.92;;;1.20;;
22737;SDS011;11536;50.860;4.286;2024-02-04T13:03:06;4.28;;;1.10;;
22737;SDS011;11536;50.860;4.286;2024-02-04T13:05:33;3.15;;;0.90;;
22737;SDS011;11536;50.860;4.286;2024-02-04T13:08:00;3.60;;;1.35;;
22737;SDS011;11536;50.860;4.286;2024-02-04T13:10:27;4.13;;;0.98;;
22737;SDS011;11536;50.860;4.286;2024-02-04T13:13:01;2.97;;;1.02;;
22737;SDS011;11536;50.860;4.286;2024-02-04T13:15:32;3.55;;;1.10;;
22737;SDS011;11536;50.860;4.286;2024-02-04T13:18:01;2.90;;;1.08;;
22737;SDS011;11536;50.860;4.286;2024-02-04T13:20:27;3.78;;;0.98;;
22737;SDS011;11536;50.860;4.286;2024-02-04T13:22:53;2.95;;;0.82;;
22737;SDS011;11536;50.860;4.286;2024-02-04T13:25:19;4.13;;;0.80;;
22737;SDS011;11536;50.860;4.286;2024-02-04T13:27:59;5.10;;;0.60;;
22737;SDS011;11536;50.860;4.286;2024-02-04T13:30:25;2.13;;;0.90;;
22737;SDS011;11536;50.860;4.286;2024-02-04T13:32:51;3.00;;;1.10;;
22737;SDS011;11536;50.860;4.286;2024-02-04T13:35:17;2.75;;;0.80;;
22737;SDS011;11536;50.860;4.286;2024-02-04T13:37:44;2.15;;;0.77;;
22737;SDS011;11536;50.860;4.286;2024-02-04T13:40:15;1.63;;;0.63;;
22737;SDS011;11536;50.860;4.286;2024-02-04T13:42:42;5.47;;;1.63;;
22737;SDS011;11536;50.860;4.286;2024-02-04T13:45:08;3.88;;;0.85;;
22737;SDS011;11536;50.860;4.286;2024-02-04T13:47:34;2.40;;;0.82;;
22737;SDS011;11536;50.860;4.286;2024-02-04T13:50:00;4.00;;;0.80;;
22737;SDS011;11536;50.860;4.286;2024-02-04T13:52:26;4.57;;;1.10;;
22737;SDS011;11536;50.860;4.286;2024-02-04T13:54:52;1.98;;;0.70;;
22737;SDS011;11536;50.860;4.286;2024-02-04T13:57:17;2.40;;;0.82;;
22737;SDS011;11536;50.860;4.286;2024-02-04T13:59:43;3.50;;;1.00;;
22737;SDS011;11536;50.860;4.286;2024-02-04T14:02:12;4.90;;;1.33;;
22737;SDS011;11536;50.860;4.286;2024-02-04T14:04:38;5.05;;;1.08;;
22737;SDS011;11536;50.860;4.286;2024-02-04T14:07:03;3.15;;;1.20;;
22737;SDS011;11536;50.860;4.286;2024-02-04T14:09:29;2.65;;;0.90;;
22737;SDS011;11536;50.860;4.286;2024-02-04T14:11:55;2.90;;;1.00;;
22737;SDS011;11536;50.860;4.286;2024-02-04T14:14:22;3.80;;;0.95;;
22737;SDS011;11536;50.860;4.286;2024-02-04T14:16:48;2.85;;;0.82;;
22737;SDS011;11536;50.860;4.286;2024-02-04T14:19:14;6.18;;;1.13;;
22737;SDS011;11536;50.860;4.286;2024-02-04T14:21:43;4.32;;;1.23;;
22737;SDS011;11536;50.860;4.286;2024-02-04T14:24:08;4.78;;;0.88;;
22737;SDS011;11536;50.860;4.286;2024-02-04T14:26:34;4.88;;;0.90;;
22737;SDS011;11536;50.860;4.286;2024-02-04T14:29:00;3.97;;;0.95;;
22737;SDS011;11536;50.860;4.286;2024-02-04T14:31:25;5.03;;;1.30;;
22737;SDS011;11536;50.860;4.286;2024-02-04T14:33:51;7.63;;;1.20;;
22737;SDS011;11536;50.860;4.286;2024-02-04T14:36:16;4.25;;;1.10;;
22737;SDS011;11536;50.860;4.286;2024-02-04T14:38:42;5.60;;;1.33;;
22737;SDS011;11536;50.860;4.286;2024-02-04T14:41:08;3.00;;;0.95;;
22737;SDS011;11536;50.860;4.286;2024-02-04T14:43:34;4.63;;;1.35;;
22737;SDS011;11536;50.860;4.286;2024-02-04T14:46:00;4.55;;;1.45;;
22737;SDS011;11536;50.860;4.286;2024-02-04T14:48:26;3.53;;;1.27;;
22737;SDS011;11536;50.860;4.286;2024-02-04T14:50:52;5.55;;;1.20;;
22737;SDS011;11536;50.860;4.286;2024-02-04T14:53:19;4.93;;;0.85;;
22737;SDS011;11536;50.860;4.286;2024-02-04T14:55:44;4.47;;;1.10;;